Time;durP1;ratioP1;P1;durP2;ratioP2;P2;SDS_P1;SDS_P2;PMS_P1;PMS_P2;Temp;Humidity;BMP_temperature;BMP_pressure;BME280_temperature;BME280_humidity;BME280_pressure;Samples;Min_cycle;Max_cycle;Signal;HPM_P1;HPM_P2
2021/03/29 00:02:23;;;;;;;31.37;18.07;;;10.10;83.10;;;;;;5051817;28;20231;-59
2021/03/29 00:04:50;;;;;;;27.10;18.63;;;10.00;82.90;;;;;;5051952;28;20202;-59
2021/03/29 00:07:19;;;;;;;27.43;19.20;;;9.90;83.00;;;;;;5048554;28;20217;-60
2021/03/29 00:09:48;;;;;;;27.57;18.63;;;9.80;83.00;;;;;;5043621;28;20276;-59
2021/03/29 00:12:16;;;;;;;23.83;18.27;;;9.90;83.20;;;;;;5048742;28;20210;-59
2021/03/29 00:14:44;;;;;;;22.13;18.17;;;9.80;82.70;;;;;;5048428;28;20252;-59
2021/03/29 00:17:13;;;;;;;22.97;18.30;;;9.80;82.70;;;;;;5043946;28;20268;-59
2021/03/29 00:19:41;;;;;;;28.57;20.07;;;9.70;82.90;;;;;;5047352;28;20207;-59
2021/03/29 00:22:09;;;;;;;34.17;19.67;;;9.70;82.90;;;;;;5050697;28;20203;-59
2021/03/29 00:24:37;;;;;;;20.60;16.83;;;9.70;83.30;;;;;;5051995;28;20195;-59
2021/03/29 00:27:05;;;;;;;18.63;15.80;;;9.70;83.30;;;;;;5044765;28;20271;-59
2021/03/29 00:29:32;;;;;;;26.30;17.90;;;9.70;82.70;;;;;;5049429;28;20631;-59
2021/03/29 00:32:00;;;;;;;27.90;18.33;;;9.60;82.60;;;;;;5046161;28;20646;-59
2021/03/29 00:34:28;;;;;;;25.83;16.00;;;9.60;82.90;;;;;;5048784;28;20198;-59
2021/03/29 00:36:56;;;;;;;21.07;17.50;;;9.60;82.80;;;;;;5050748;28;20213;-59
2021/03/29 00:39:24;;;;;;;26.33;18.00;;;9.60;82.50;;;;;;5050326;28;20241;-59
2021/03/29 00:41:52;;;;;;;19.37;15.80;;;9.60;82.50;;;;;;5023607;28;20302;-59
2021/03/29 00:44:20;;;;;;;20.83;15.30;;;9.60;83.00;;;;;;5045999;28;20232;-59
2021/03/29 00:46:49;;;;;;;23.70;16.03;;;9.50;81.70;;;;;;5033595;28;20285;-59
2021/03/29 00:49:16;;;;;;;20.10;15.97;;;9.40;81.50;;;;;;5047746;28;20215;-59
2021/03/29 00:51:46;;;;;;;25.80;17.17;;;9.40;81.50;;;;;;5047646;28;20453;-59
2021/03/29 00:54:13;;;;;;;19.13;15.60;;;9.40;81.40;;;;;;5029849;28;20626;-59
2021/03/29 00:56:41;;;;;;;23.23;17.60;;;9.30;81.40;;;;;;5041658;28;20722;-59
2021/03/29 00:59:09;;;;;;;19.77;14.80;;;9.30;81.50;;;;;;5044917;28;20677;-59
2021/03/29 01:01:47;;;;;;;21.37;15.37;;;9.20;81.50;;;;;;5050870;28;20217;-59
2021/03/29 01:04:15;;;;;;;21.17;16.47;;;9.20;81.00;;;;;;5050377;28;20241;-59
2021/03/29 01:06:45;;;;;;;24.13;18.50;;;9.10;81.00;;;;;;5033545;28;20241;-59
2021/03/29 01:09:25;;;;;;;29.20;20.60;;;8.90;81.80;;;;;;5051223;28;20253;-59
2021/03/29 01:12:04;;;;;;;25.93;20.40;;;8.90;83.30;;;;;;5045105;28;20229;-59
2021/03/29 01:14:42;;;;;;;25.20;16.17;;;8.90;84.10;;;;;;5041884;28;20674;-59
2021/03/29 01:17:19;;;;;;;24.70;16.70;;;8.90;83.80;;;;;;5035383;28;20218;-58
2021/03/29 01:19:46;;;;;;;20.40;14.93;;;8.90;83.30;;;;;;5033556;28;20245;-59
2021/03/29 01:22:17;;;;;;;23.07;16.03;;;8.90;83.10;;;;;;5045257;28;20210;-59
2021/03/29 01:25:04;;;;;;;22.97;15.83;;;8.90;82.80;;;;;;5044325;28;20237;-59
2021/03/29 01:27:42;;;;;;;17.87;14.83;;;8.90;82.70;;;;;;5052762;28;20214;-59
2021/03/29 01:30:11;;;;;;;21.73;16.87;;;8.90;82.60;;;;;;5048666;28;20305;-58
2021/03/29 01:32:44;;;;;;;21.97;17.27;;;8.90;82.60;;;;;;5037642;28;21593;-59
2021/03/29 01:35:16;;;;;;;25.43;18.67;;;8.90;82.90;;;;;;5054124;28;20211;-59
2021/03/29 01:37:46;;;;;;;22.00;16.80;;;9.00;83.00;;;;;;5049939;28;20241;-59
2021/03/29 01:40:18;;;;;;;18.00;14.23;;;9.00;83.10;;;;;;5031639;28;20290;-59
2021/03/29 01:42:48;;;;;;;20.50;15.80;;;8.90;82.80;;;;;;5049579;28;20211;-59
2021/03/29 01:45:17;;;;;;;25.27;14.63;;;9.00;82.60;;;;;;5048157;28;20249;-58
2021/03/29 01:47:45;;;;;;;23.47;16.60;;;8.90;82.50;;;;;;5047620;28;20211;-59
2021/03/29 01:50:17;;;;;;;21.23;16.57;;;8.90;82.60;;;;;;5043133;28;20211;-58
2021/03/29 01:52:45;;;;;;;26.43;15.30;;;8.90;82.70;;;;;;5048969;28;20564;-57
2021/03/29 01:55:13;;;;;;;19.67;15.00;;;8.90;82.50;;;;;;5045137;28;20702;-58
2021/03/29 01:57:40;;;;;;;20.40;17.43;;;8.80;82.30;;;;;;5044968;28;20682;-58
2021/03/29 02:00:16;;;;;;;22.10;16.37;;;8.80;82.40;;;;;;5054269;28;20207;-58
2021/03/29 02:02:44;;;;;;;23.17;16.80;;;8.70;82.60;;;;;;5049636;28;20638;-58
2021/03/29 02:05:16;;;;;;;22.63;18.50;;;8.70;82.70;;;;;;5036817;28;20203;-58
2021/03/29 02:07:46;;;;;;;19.07;15.40;;;8.60;83.10;;;;;;5050023;28;20238;-57
2021/03/29 02:10:17;;;;;;;22.63;17.97;;;8.60;83.20;;;;;;5031205;28;20229;-57
2021/03/29 02:13:05;;;;;;;27.60;18.30;;;8.60;83.10;;;;;;5033970;28;20215;-57
2021/03/29 02:15:33;;;;;;;27.90;19.30;;;8.60;83.30;;;;;;5043720;28;20327;-58
2021/03/29 02:18:04;;;;;;;25.80;20.33;;;8.60;83.60;;;;;;5050525;28;20606;-59
2021/03/29 02:20:35;;;;;;;24.50;18.30;;;8.60;83.90;;;;;;5045510;28;20207;-57
2021/03/29 02:23:05;;;;;;;24.90;18.47;;;8.60;84.30;;;;;;5049377;28;20252;-57
2021/03/29 02:25:34;;;;;;;24.73;17.87;;;8.50;84.20;;;;;;5053336;28;20284;-57
2021/03/29 02:28:04;;;;;;;21.33;16.07;;;8.60;84.30;;;;;;5050023;28;20301;-57
2021/03/29 02:30:35;;;;;;;24.20;16.60;;;8.50;84.40;;;;;;5048928;28;20215;-57
2021/03/29 02:33:05;;;;;;;19.97;17.17;;;8.50;84.30;;;;;;5051278;28;20218;-57
2021/03/29 02:35:35;;;;;;;23.07;17.27;;;8.50;84.00;;;;;;5053233;28;20293;-57
2021/03/29 02:38:15;;;;;;;;;;;;;;;;;;;;;
2021/03/29 02:40:44;;;;;;;24.60;16.33;;;8.40;83.60;;;;;;5053096;28;20289;-57
2021/03/29 02:43:12;;;;;;;28.30;21.67;;;8.40;83.70;;;;;;5047825;28;20203;-58
2021/03/29 02:45:45;;;;;;;21.50;17.10;;;8.30;83.70;;;;;;5034888;28;20688;-58
2021/03/29 02:48:17;;;;;;;19.53;15.07;;;8.30;84.30;;;;;;5051942;28;20298;-58
2021/03/29 02:50:49;;;;;;;21.53;16.20;;;8.30;84.30;;;;;;5041577;28;20243;-57
2021/03/29 02:53:22;;;;;;;19.37;16.07;;;8.30;84.30;;;;;;5028397;28;20207;-57
2021/03/29 02:55:51;;;;;;;12.63;11.10;;;8.40;84.40;;;;;;5019164;28;20579;-58
2021/03/29 02:58:23;;;;;;;22.20;16.23;;;8.40;84.40;;;;;;5026725;28;20690;-58
2021/03/29 03:00:52;;;;;;;21.53;17.90;;;8.40;84.30;;;;;;5046925;28;20228;-57
2021/03/29 03:03:19;;;;;;;18.40;14.30;;;8.40;84.30;;;;;;5035968;28;20748;-57
2021/03/29 03:05:50;;;;;;;19.97;15.80;;;8.40;84.60;;;;;;5048500;28;20207;-58
2021/03/29 03:08:18;;;;;;;16.90;14.37;;;8.40;84.60;;;;;;5047602;28;20215;-58
2021/03/29 03:10:45;;;;;;;18.57;15.27;;;8.40;84.60;;;;;;5046722;28;20246;-58
2021/03/29 03:13:13;;;;;;;19.57;15.17;;;8.40;84.40;;;;;;5048277;28;20246;-58
2021/03/29 03:15:40;;;;;;;20.93;16.63;;;8.40;84.20;;;;;;5043986;28;20248;-58
2021/03/29 03:18:10;;;;;;;20.83;17.13;;;8.40;84.20;;;;;;5047692;28;20292;-57
2021/03/29 03:20:39;;;;;;;26.10;18.87;;;8.40;84.40;;;;;;5047424;28;20206;-57
2021/03/29 03:23:14;;;;;;;28.10;19.87;;;8.50;84.40;;;;;;5052703;28;20554;-57
2021/03/29 03:25:47;;;;;;;22.83;18.30;;;8.50;84.50;;;;;;5027537;28;20568;-57
2021/03/29 03:28:20;;;;;;;22.93;18.70;;;8.50;84.40;;;;;;5052076;28;20207;-58
2021/03/29 03:30:50;;;;;;;21.17;18.80;;;8.50;84.00;;;;;;5045472;28;20273;-58
2021/03/29 03:33:21;;;;;;;21.50;19.30;;;8.40;83.60;;;;;;5051448;28;20213;-58
2021/03/29 03:35:51;;;;;;;26.90;21.47;;;8.40;83.70;;;;;;5046772;28;20232;-57
2021/03/29 03:38:28;;;;;;;31.07;24.80;;;8.40;84.20;;;;;;5050266;28;20622;-58
2021/03/29 03:41:01;;;;;;;33.73;26.47;;;8.40;85.20;;;;;;5027614;28;20283;-58
2021/03/29 03:43:32;;;;;;;43.00;28.53;;;8.40;85.90;;;;;;5033213;28;20267;-57
2021/03/29 03:46:03;;;;;;;38.10;26.80;;;8.40;86.80;;;;;;5047201;28;20198;-58
2021/03/29 03:48:32;;;;;;;39.00;26.33;;;8.40;87.80;;;;;;5042884;28;20597;-58
2021/03/29 03:50:59;;;;;;;33.57;24.13;;;8.40;88.10;;;;;;5027769;28;20219;-58
2021/03/29 03:53:28;;;;;;;35.87;26.40;;;8.40;88.00;;;;;;5040447;28;20206;-58
2021/03/29 03:55:58;;;;;;;33.83;25.87;;;8.40;87.80;;;;;;5043252;28;20649;-58
2021/03/29 03:58:26;;;;;;;36.67;26.03;;;8.40;87.40;;;;;;5035164;28;20241;-58
2021/03/29 04:00:55;;;;;;;44.90;30.80;;;8.40;87.20;;;;;;5051990;28;20683;-58
2021/03/29 04:03:26;;;;;;;50.27;35.90;;;8.30;86.80;;;;;;5046607;28;20631;-58
2021/03/29 04:05:54;;;;;;;40.57;29.07;;;8.30;86.10;;;;;;5050460;28;20213;-58
2021/03/29 04:08:40;;;;;;;40.43;30.80;;;8.30;85.80;;;;;;5046622;28;20218;-57
2021/03/29 04:11:08;;;;;;;38.03;28.23;;;8.20;86.00;;;;;;5049027;28;20301;-57
2021/03/29 04:13:35;;;;;;;43.97;27.80;;;8.10;85.90;;;;;;5050580;28;20213;-57
2021/03/29 04:16:05;;;;;;;39.27;27.17;;;8.10;86.00;;;;;;5066405;28;20711;-58
2021/03/29 04:18:33;;;;;;;35.93;27.77;;;8.10;86.00;;;;;;5068644;28;20286;-58
2021/03/29 04:21:00;;;;;;;30.90;24.53;;;8.10;85.80;;;;;;5068939;28;20197;-58
2021/03/29 04:23:30;;;;;;;37.77;24.10;;;8.00;85.60;;;;;;5052986;28;20212;-58
2021/03/29 04:26:03;;;;;;;36.77;24.33;;;8.00;85.60;;;;;;5071023;28;20255;-58
2021/03/29 04:28:33;;;;;;;27.97;23.40;;;8.00;85.70;;;;;;5064815;28;20218;-58
2021/03/29 04:31:01;;;;;;;42.93;24.60;;;8.00;85.70;;;;;;5068847;28;20213;-57
2021/03/29 04:33:28;;;;;;;33.53;24.90;;;8.00;86.40;;;;;;5051528;28;20259;-57
2021/03/29 04:35:55;;;;;;;35.27;24.63;;;8.00;86.30;;;;;;5069080;28;20270;-57
2021/03/29 04:38:22;;;;;;;32.60;24.13;;;8.00;86.60;;;;;;5070540;28;20265;-58
2021/03/29 04:40:49;;;;;;;32.37;24.17;;;8.00;86.80;;;;;;5070445;28;20205;-58
2021/03/29 04:43:16;;;;;;;37.33;25.83;;;8.00;87.00;;;;;;5071311;28;20240;-58
2021/03/29 04:45:43;;;;;;;38.27;26.27;;;8.00;87.20;;;;;;5069070;28;20233;-58
2021/03/29 04:48:10;;;;;;;33.47;25.13;;;8.00;87.60;;;;;;5055771;28;20206;-57
2021/03/29 04:50:37;;;;;;;33.80;22.40;;;8.00;87.80;;;;;;5057380;28;20209;-57
2021/03/29 04:53:05;;;;;;;32.63;23.00;;;7.90;87.80;;;;;;5075777;28;20198;-58
2021/03/29 04:55:31;;;;;;;29.47;22.23;;;7.90;87.70;;;;;;5050698;28;20609;-57
2021/03/29 04:57:58;;;;;;;31.93;23.37;;;7.90;87.50;;;;;;5066529;28;20229;-58
2021/03/29 05:00:25;;;;;;;29.73;23.33;;;7.80;87.40;;;;;;5057387;28;20243;-58
2021/03/29 05:02:52;;;;;;;33.20;23.13;;;7.80;87.20;;;;;;5067293;28;20237;-57
2021/03/29 05:05:19;;;;;;;32.30;24.10;;;7.80;87.10;;;;;;5056698;28;20198;-58
2021/03/29 05:07:46;;;;;;;39.87;23.10;;;7.80;87.10;;;;;;5068203;28;20537;-57
2021/03/29 05:10:14;;;;;;;36.27;22.60;;;7.80;87.20;;;;;;5073656;28;20216;-58
2021/03/29 05:12:41;;;;;;;35.53;26.00;;;7.80;87.20;;;;;;5073150;28;20205;-57
2021/03/29 05:15:09;;;;;;;34.13;25.07;;;7.80;87.20;;;;;;5054969;28;20243;-57
2021/03/29 05:17:36;;;;;;;37.37;25.40;;;7.80;87.60;;;;;;5051307;28;20285;-57
2021/03/29 05:20:05;;;;;;;36.50;23.87;;;7.80;88.00;;;;;;5048312;28;20214;-58
2021/03/29 05:22:32;;;;;;;32.60;23.60;;;7.80;88.20;;;;;;5050344;28;20217;-57
2021/03/29 05:24:58;;;;;;;32.00;23.60;;;7.80;88.10;;;;;;5046923;28;20712;-57
2021/03/29 05:27:25;;;;;;;38.83;23.33;;;7.90;88.00;;;;;;5036259;28;20217;-58
2021/03/29 05:29:52;;;;;;;40.57;24.60;;;7.90;87.90;;;;;;5042865;28;20264;-58
2021/03/29 05:32:24;;;;;;;44.73;25.47;;;8.00;87.80;;;;;;5050491;28;20272;-58
2021/03/29 05:34:54;;;;;;;33.00;22.80;;;8.20;88.00;;;;;;5041621;28;20596;-58
2021/03/29 05:37:22;;;;;;;30.63;23.40;;;8.30;88.00;;;;;;5029923;28;20609;-58
2021/03/29 05:39:51;;;;;;;33.93;23.20;;;8.50;87.90;;;;;;5033866;28;20236;-58
2021/03/29 05:42:19;;;;;;;32.80;23.33;;;8.70;87.80;;;;;;5054113;28;20518;-58
2021/03/29 05:44:47;;;;;;;32.23;23.03;;;8.90;87.20;;;;;;5029103;28;20517;-58
2021/03/29 05:47:16;;;;;;;42.20;24.60;;;9.10;86.80;;;;;;5051832;28;20207;-57
2021/03/29 05:49:43;;;;;;;39.27;22.87;;;9.30;86.40;;;;;;5053946;28;20368;-57
2021/03/29 05:52:10;;;;;;;37.73;24.20;;;9.50;86.10;;;;;;5051252;28;20293;-58
2021/03/29 05:54:39;;;;;;;32.97;22.20;;;9.60;85.90;;;;;;5052528;28;20635;-58
2021/03/29 05:57:07;;;;;;;44.07;23.07;;;9.80;85.50;;;;;;5054015;28;20225;-58
2021/03/29 05:59:40;;;;;;;41.43;24.23;;;10.00;85.20;;;;;;5052084;28;20231;-58
2021/03/29 06:02:09;;;;;;;39.73;26.43;;;10.10;85.60;;;;;;5044467;28;20207;-58
2021/03/29 06:04:45;;;;;;;30.27;24.13;;;10.40;84.80;;;;;;5035969;28;20241;-57
2021/03/29 06:07:18;;;;;;;28.40;22.07;;;10.60;84.40;;;;;;5036285;28;20205;-57
2021/03/29 06:09:48;;;;;;;31.07;23.13;;;10.80;83.90;;;;;;5032818;28;20688;-58
2021/03/29 06:12:16;;;;;;;32.10;25.23;;;11.00;83.30;;;;;;5054046;28;20423;-58
2021/03/29 06:14:44;;;;;;;35.20;25.53;;;11.20;82.70;;;;;;5054839;28;20307;-58
2021/03/29 06:17:11;;;;;;;31.63;23.67;;;11.40;82.00;;;;;;5052924;28;20276;-58
2021/03/29 06:19:41;;;;;;;32.73;24.77;;;11.50;81.50;;;;;;5036488;28;20222;-58
2021/03/29 06:22:26;;;;;;;31.40;25.83;;;11.70;81.10;;;;;;5034519;28;20202;-57
2021/03/29 06:24:54;;;;;;;29.87;25.87;;;11.80;80.90;;;;;;5048534;28;20218;-58
2021/03/29 06:27:23;;;;;;;33.23;25.20;;;11.90;80.80;;;;;;5034022;28;20677;-58
2021/03/29 06:29:50;;;;;;;31.37;26.50;;;12.10;80.30;;;;;;5054149;28;20222;-58
2021/03/29 06:32:20;;;;;;;32.40;26.50;;;12.20;79.80;;;;;;5054008;28;20605;-58
2021/03/29 06:34:47;;;;;;;33.00;25.17;;;12.40;79.10;;;;;;5053464;28;20539;-58
2021/03/29 06:37:18;;;;;;;31.87;26.00;;;12.60;78.80;;;;;;5036496;28;20206;-58
2021/03/29 06:39:45;;;;;;;37.57;27.00;;;12.80;78.30;;;;;;5051571;28;20226;-58
2021/03/29 06:42:12;;;;;;;30.33;25.23;;;12.90;77.90;;;;;;5051930;28;20541;-58
2021/03/29 06:44:39;;;;;;;37.60;26.93;;;13.00;77.00;;;;;;5031381;28;20210;-58
2021/03/29 06:47:06;;;;;;;34.93;25.30;;;13.20;76.70;;;;;;5052643;28;20629;-58
2021/03/29 06:49:51;;;;;;;38.43;25.27;;;13.30;76.10;;;;;;5051425;28;20213;-58
2021/03/29 06:52:28;;;;;;;33.47;24.67;;;13.40;75.60;;;;;;5031348;28;20297;-58
2021/03/29 06:55:26;;;;;;;34.33;23.00;;;13.50;75.10;;;;;;5051429;28;20205;-58
2021/03/29 06:58:05;;;;;;;33.90;23.60;;;13.60;74.60;;;;;;5047987;28;20210;-57
2021/03/29 07:00:34;;;;;;;36.77;22.23;;;13.70;74.60;;;;;;5046551;28;20205;-59
2021/03/29 07:03:05;;;;;;;29.90;21.63;;;13.80;74.40;;;;;;5036031;28;20229;-57
2021/03/29 07:05:33;;;;;;;31.27;23.30;;;13.90;74.20;;;;;;5026818;28;20206;-60
2021/03/29 07:08:03;;;;;;;33.97;23.87;;;14.00;74.00;;;;;;5035660;28;20302;-57
2021/03/29 07:10:30;;;;;;;28.83;23.37;;;14.10;73.80;;;;;;5031802;28;20216;-56
2021/03/29 07:12:58;;;;;;;28.93;22.83;;;14.10;73.80;;;;;;5027958;28;20257;-58
2021/03/29 07:15:25;;;;;;;29.70;23.23;;;14.30;73.60;;;;;;5047639;28;20230;-55
2021/03/29 07:17:52;;;;;;;27.27;21.87;;;14.40;73.50;;;;;;5038727;28;20215;-56
2021/03/29 07:20:25;;;;;;;28.80;21.23;;;14.40;73.40;;;;;;5043154;28;20209;-57
2021/03/29 07:22:55;;;;;;;27.50;20.53;;;14.50;73.10;;;;;;5035868;28;20211;-57
2021/03/29 07:25:29;;;;;;;25.70;21.37;;;14.60;72.90;;;;;;5044741;28;20428;-57
2021/03/29 07:27:58;;;;;;;25.77;21.27;;;14.70;72.70;;;;;;5043993;28;20213;-56
2021/03/29 07:30:47;;;;;;;31.23;21.63;;;14.90;72.50;;;;;;5047043;28;20211;-56
2021/03/29 07:33:16;;;;;;;27.97;21.07;;;15.00;72.20;;;;;;5044000;28;20206;-57
2021/03/29 07:35:56;;;;;;;27.97;20.90;;;15.10;72.00;;;;;;5030657;28;20218;-58
2021/03/29 07:38:26;;;;;;;24.00;21.40;;;15.30;71.70;;;;;;5027407;28;20434;-56
2021/03/29 07:40:59;;;;;;;23.20;20.80;;;15.50;71.40;;;;;;5049305;28;20604;-57
2021/03/29 07:43:32;;;;;;;24.13;20.57;;;15.60;70.70;;;;;;5033098;28;20238;-58
2021/03/29 07:46:04;;;;;;;22.07;19.70;;;15.70;70.50;;;;;;5052248;28;20249;-59
2021/03/29 07:48:42;;;;;;;25.83;20.50;;;15.90;69.80;;;;;;5046659;28;20233;-59
2021/03/29 07:51:15;;;;;;;26.50;20.93;;;16.10;68.80;;;;;;5049150;28;20213;-56
2021/03/29 07:53:53;;;;;;;26.93;21.10;;;16.30;68.70;;;;;;5044279;28;20238;-58
2021/03/29 07:56:37;;;;;;;26.87;20.00;;;16.40;68.50;;;;;;5037470;28;20246;-58
2021/03/29 07:59:06;;;;;;;26.90;21.27;;;16.60;68.10;;;;;;5044247;28;20230;-56
2021/03/29 08:02:00;;;;;;;28.77;21.00;;;16.80;67.60;;;;;;5027501;28;20275;-56
2021/03/29 08:05:05;;;;;;;23.63;21.30;;;17.00;67.00;;;;;;5028628;28;20210;-56
2021/03/29 08:07:41;;;;;;;32.33;21.83;;;17.30;66.40;;;;;;5039169;28;20298;-58
2021/03/29 08:10:13;;;;;;;23.87;21.30;;;17.40;64.80;;;;;;5027407;28;20226;-55
2021/03/29 08:13:00;;;;;;;27.17;21.40;;;17.50;65.30;;;;;;5047582;28;20266;-55
2021/03/29 08:15:58;;;;;;;23.50;21.00;;;17.60;64.40;;;;;;5043528;28;20254;-58
2021/03/29 08:18:25;;;;;;;26.23;21.17;;;17.70;63.80;;;;;;5047058;28;20237;-56
2021/03/29 08:20:53;;;;;;;23.03;19.97;;;17.60;63.10;;;;;;5051030;28;20206;-58
2021/03/29 08:23:34;;;;;;;24.70;21.97;;;17.70;63.20;;;;;;5032285;28;20286;-57
2021/03/29 08:26:20;;;;;;;27.07;21.03;;;17.80;64.20;;;;;;5051252;28;20275;-61
2021/03/29 08:29:35;;;;;;;24.63;21.00;;;18.00;63.60;;;;;;5050057;28;20219;-57
2021/03/29 08:32:24;;;;;;;23.87;19.93;;;18.30;62.60;;;;;;5020927;28;20218;-60
2021/03/29 08:35:01;;;;;;;22.20;19.67;;;18.60;62.00;;;;;;5026011;28;20619;-58
2021/03/29 08:37:45;;;;;;;27.07;20.63;;;18.80;61.50;;;;;;5047538;28;20293;-59
2021/03/29 08:40:27;;;;;;;22.93;19.33;;;19.00;60.80;;;;;;5041889;28;20242;-59
2021/03/29 08:43:03;;;;;;;21.37;19.07;;;19.10;60.60;;;;;;5049535;28;20202;-59
2021/03/29 08:45:30;;;;;;;23.03;19.63;;;19.40;60.10;;;;;;5045296;28;20210;-58
2021/03/29 08:48:00;;;;;;;23.50;19.80;;;19.60;60.00;;;;;;5047089;28;20211;-57
2021/03/29 08:50:47;;;;;;;21.23;18.93;;;19.80;58.90;;;;;;5051141;28;20213;-59
2021/03/29 08:53:14;;;;;;;21.73;19.47;;;19.90;58.30;;;;;;5050920;28;20202;-59
2021/03/29 08:55:43;;;;;;;21.60;18.30;;;20.00;57.70;;;;;;5034708;28;20295;-59
2021/03/29 08:58:11;;;;;;;21.70;19.37;;;20.10;57.10;;;;;;5048954;28;20206;-59
2021/03/29 09:00:41;;;;;;;25.77;20.10;;;20.00;57.60;;;;;;5047698;28;20206;-59
2021/03/29 09:03:18;;;;;;;22.60;19.60;;;20.00;57.90;;;;;;5023601;28;20211;-57
2021/03/29 09:05:45;;;;;;;27.03;20.07;;;20.00;57.10;;;;;;5025749;28;20211;-57
2021/03/29 09:08:13;;;;;;;22.20;19.80;;;20.10;57.90;;;;;;5036501;28;20218;-58
2021/03/29 09:10:42;;;;;;;23.63;19.97;;;20.30;57.30;;;;;;5042975;28;20219;-59
2021/03/29 09:13:14;;;;;;;22.80;19.37;;;20.30;56.70;;;;;;5045613;28;20211;-59
2021/03/29 09:15:44;;;;;;;23.63;19.57;;;20.30;56.70;;;;;;5060102;28;20271;-57
2021/03/29 09:18:15;;;;;;;21.33;19.23;;;20.30;56.20;;;;;;5065389;28;20206;-60
2021/03/29 09:20:47;;;;;;;24.17;20.20;;;20.50;56.70;;;;;;5067795;28;20202;-61
2021/03/29 09:23:17;;;;;;;25.37;18.77;;;20.70;56.20;;;;;;5067555;28;20202;-59
2021/03/29 09:25:49;;;;;;;22.43;19.60;;;20.90;56.10;;;;;;5069276;28;20271;-61
2021/03/29 09:31:32;;;;;;;22.80;19.30;;;21.30;54.80;;;;;;5065725;28;20201;-60
2021/03/29 09:33:59;;;;;;;20.40;18.13;;;21.60;54.50;;;;;;5059563;28;20295;-60
2021/03/29 09:36:26;;;;;;;20.27;17.93;;;21.80;54.10;;;;;;5073201;28;20210;-58
2021/03/29 09:38:58;;;;;;;20.20;17.60;;;21.90;53.90;;;;;;5063323;28;20241;-60
2021/03/29 09:41:32;;;;;;;21.10;18.33;;;22.00;53.00;;;;;;5071378;28;20541;-59
2021/03/29 09:44:07;;;;;;;21.80;19.07;;;22.10;52.40;;;;;;5073540;28;20274;-58
2021/03/29 09:46:35;;;;;;;21.10;18.10;;;22.20;51.10;;;;;;5070617;28;20267;-60
2021/03/29 09:49:07;;;;;;;23.73;18.20;;;22.20;51.00;;;;;;5074763;28;20300;-59
2021/03/29 09:51:37;;;;;;;23.10;19.53;;;22.20;51.00;;;;;;5067724;28;20203;-60
2021/03/29 09:54:25;;;;;;;21.07;18.53;;;22.20;51.30;;;;;;5059410;28;20222;-59
2021/03/29 09:56:53;;;;;;;22.93;18.90;;;22.30;50.40;;;;;;5072036;28;20202;-59
2021/03/29 09:59:31;;;;;;;21.37;19.03;;;22.40;51.00;;;;;;5074990;28;20657;-59
2021/03/29 10:02:00;;;;;;;20.13;17.07;;;22.50;50.30;;;;;;5065818;28;20213;-59
2021/03/29 10:04:27;;;;;;;21.03;17.40;;;22.70;49.80;;;;;;5065296;28;20237;-58
2021/03/29 10:06:58;;;;;;;19.53;16.87;;;22.80;49.60;;;;;;5061366;28;20202;-57
2021/03/29 10:09:36;;;;;;;23.17;19.33;;;23.00;49.20;;;;;;5060778;28;20731;-58
2021/03/29 10:12:05;;;;;;;29.87;19.70;;;23.10;48.60;;;;;;5063384;28;20220;-56
2021/03/29 10:14:38;;;;;;;23.53;20.03;;;23.00;48.30;;;;;;5068391;28;20700;-59
2021/03/29 10:17:19;;;;;;;27.00;17.93;;;22.90;48.90;;;;;;5073469;28;20474;-60
2021/03/29 10:19:47;;;;;;;24.00;19.33;;;23.00;49.10;;;;;;5073368;28;20253;-59
2021/03/29 10:22:19;;;;;;;21.73;18.60;;;23.00;48.10;;;;;;5055095;28;20218;-60
2021/03/29 10:25:22;;;;;;;23.50;18.80;;;23.10;48.60;;;;;;5071228;28;20206;-59
2021/03/29 10:27:51;;;;;;;24.10;17.17;;;23.10;48.80;;;;;;5059807;28;20640;-60
2021/03/29 10:30:18;;;;;;;22.03;16.60;;;23.30;48.20;;;;;;5073201;28;20220;-59
2021/03/29 10:33:05;;;;;;;17.27;15.47;;;23.40;47.50;;;;;;5068233;28;20210;-58
2021/03/29 10:35:33;;;;;;;16.67;14.77;;;23.50;47.50;;;;;;4971639;28;20220;-58
2021/03/29 10:38:02;;;;;;;14.73;13.33;;;23.60;47.50;;;;;;4976580;28;20556;-59
2021/03/29 10:40:30;;;;;;;17.93;16.03;;;23.70;47.00;;;;;;4986429;28;20274;-59
2021/03/29 10:42:57;;;;;;;16.50;14.77;;;23.80;47.00;;;;;;4992243;28;20220;-58
2021/03/29 10:45:24;;;;;;;18.77;14.90;;;23.90;45.80;;;;;;4992303;28;20299;-58
2021/03/29 10:47:51;;;;;;;19.40;15.03;;;23.90;45.00;;;;;;5051455;28;20260;-58
2021/03/29 10:50:21;;;;;;;17.63;14.13;;;23.80;45.10;;;;;;5078437;28;20213;-61
2021/03/29 10:52:48;;;;;;;16.03;13.43;;;23.70;45.30;;;;;;5058651;28;20515;-59
2021/03/29 10:55:15;;;;;;;16.23;12.40;;;23.70;45.80;;;;;;5061533;28;20214;-57
2021/03/29 10:57:42;;;;;;;16.83;13.07;;;23.80;46.00;;;;;;5068017;28;20210;-59
2021/03/29 11:00:10;;;;;;;14.43;12.30;;;23.90;44.90;;;;;;5061596;28;20553;-57
2021/03/29 11:02:37;;;;;;;15.87;12.93;;;24.00;44.50;;;;;;5057432;28;20705;-56
2021/03/29 11:05:05;;;;;;;14.23;10.87;;;24.10;44.50;;;;;;5062369;28;20202;-58
2021/03/29 11:07:32;;;;;;;13.83;12.07;;;24.20;44.10;;;;;;5061874;28;20198;-60
2021/03/29 11:09:59;;;;;;;20.93;13.17;;;24.30;43.60;;;;;;5064287;28;20206;-59
2021/03/29 11:12:26;;;;;;;13.27;11.83;;;24.40;42.90;;;;;;5062184;28;20210;-60
2021/03/29 11:14:53;;;;;;;15.80;13.10;;;24.20;41.50;;;;;;5053280;28;20268;-58
2021/03/29 11:17:21;;;;;;;19.07;13.63;;;24.00;42.50;;;;;;5042914;28;20559;-58
2021/03/29 11:19:48;;;;;;;13.40;11.47;;;23.80;42.50;;;;;;5043675;28;20240;-59
2021/03/29 11:22:14;;;;;;;11.83;10.50;;;23.70;43.40;;;;;;5035872;28;20206;-59
2021/03/29 11:24:41;;;;;;;16.10;10.63;;;23.80;43.60;;;;;;5044322;28;20211;-58
2021/03/29 11:27:08;;;;;;;15.07;12.47;;;23.90;43.20;;;;;;5035612;28;20260;-60
2021/03/29 11:29:35;;;;;;;14.17;11.83;;;24.20;43.20;;;;;;5050256;28;20216;-59
2021/03/29 11:32:02;;;;;;;13.27;11.80;;;24.30;42.30;;;;;;5034872;28;20210;-59
2021/03/29 11:34:29;;;;;;;19.97;11.43;;;24.40;41.80;;;;;;5034569;28;20209;-60
2021/03/29 11:36:56;;;;;;;13.80;10.33;;;24.40;41.80;;;;;;5034442;28;20237;-61
2021/03/29 11:39:23;;;;;;;14.33;11.57;;;24.50;42.00;;;;;;5034390;28;20233;-60
2021/03/29 11:41:49;;;;;;;29.90;13.00;;;24.60;41.40;;;;;;5049442;28;20214;-60
2021/03/29 11:44:16;;;;;;;14.70;12.43;;;24.60;42.00;;;;;;5031319;28;20211;-60
2021/03/29 11:46:44;;;;;;;13.00;11.47;;;24.60;41.50;;;;;;5052164;28;20242;-60
2021/03/29 11:49:11;;;;;;;12.43;11.13;;;24.60;41.50;;;;;;5052446;28;20214;-60
2021/03/29 11:51:38;;;;;;;13.03;11.73;;;24.60;41.30;;;;;;5032875;28;20234;-60
2021/03/29 11:54:06;;;;;;;15.03;12.13;;;24.60;41.20;;;;;;5046280;28;20284;-60
2021/03/29 11:56:36;;;;;;;13.80;11.40;;;24.60;39.80;;;;;;5049852;28;20305;-60
2021/03/29 11:59:04;;;;;;;11.37;10.27;;;24.30;40.10;;;;;;5044715;28;20230;-58
2021/03/29 12:05:30;;;;;;;12.47;11.17;;;24.10;41.70;;;;;;5031407;28;20217;-58
2021/03/29 12:07:41;;;;;;;18.20;10.73;;;24.30;41.70;;;;;;5025022;28;20202;-57
2021/03/29 12:12:55;;;;;;;14.45;11.93;;;24.60;41.20;;;;;;5032873;28;20518;-60
2021/03/29 12:15:22;;;;;;;17.53;11.30;;;24.70;42.20;;;;;;5035209;28;20550;-60
2021/03/29 12:17:50;;;;;;;12.30;10.17;;;24.80;41.50;;;;;;5032902;28;20246;-60
2021/03/29 12:20:18;;;;;;;15.50;11.40;;;24.90;41.50;;;;;;5037161;28;20230;-60
2021/03/29 12:22:46;;;;;;;16.37;10.90;;;25.00;41.30;;;;;;5035378;28;21007;-59
2021/03/29 12:25:17;;;;;;;15.13;10.87;;;25.00;40.80;;;;;;5038879;28;20228;-59
2021/03/29 12:27:45;;;;;;;16.23;11.53;;;24.90;41.40;;;;;;5018155;28;20206;-59
2021/03/29 12:30:17;;;;;;;17.13;12.17;;;24.60;41.90;;;;;;5030323;28;20206;-59
2021/03/29 12:32:46;;;;;;;16.23;11.40;;;24.30;41.90;;;;;;5032727;28;20225;-59
2021/03/29 12:35:19;;;;;;;15.00;11.60;;;24.00;41.90;;;;;;5043068;28;20210;-60
2021/03/29 12:37:49;;;;;;;18.67;11.17;;;23.90;42.10;;;;;;5032862;28;20202;-58
2021/03/29 12:40:22;;;;;;;12.43;11.10;;;23.90;41.70;;;;;;5051264;28;20662;-59
2021/03/29 12:45:31;;;;;;;18.37;12.73;;;23.80;41.60;;;;;;5048452;28;20206;-59
2021/03/29 12:48:10;;;;;;;15.03;11.90;;;23.80;41.90;;;;;;5050235;28;20643;-61
2021/03/29 12:50:37;;;;;;;13.30;11.73;;;23.70;41.30;;;;;;5041815;28;20253;-59
2021/03/29 12:53:04;;;;;;;10.57;9.50;;;23.70;41.40;;;;;;5051501;28;20206;-59
2021/03/29 12:55:32;;;;;;;12.30;11.00;;;23.70;41.80;;;;;;5033109;28;20217;-59
2021/03/29 12:57:59;;;;;;;11.63;10.37;;;23.80;41.80;;;;;;5030736;28;20268;-60
2021/03/29 13:00:29;;;;;;;16.67;11.20;;;23.90;41.80;;;;;;5051118;28;20561;-61
2021/03/29 13:02:58;;;;;;;13.10;11.67;;;24.10;42.10;;;;;;5048013;28;20268;-60
2021/03/29 13:08:18;;;;;;;14.47;12.93;;;23.80;42.80;;;;;;5047020;28;20207;-60